sensor_id;sensor_type;location;lat;lon;timestamp;temperature;humidity
4578;DHT22;2301;47.354;8.528;2023-04-23T00:01:25;17.70;68.80
4578;DHT22;2301;47.354;8.528;2023-04-23T00:03:55;17.70;69.10
4578;DHT22;2301;47.354;8.528;2023-04-23T00:06:23;17.70;69.20
4578;DHT22;2301;47.354;8.528;2023-04-23T00:08:52;17.80;69.50
4578;DHT22;2301;47.354;8.528;2023-04-23T00:11:21;17.80;69.50
4578;DHT22;2301;47.354;8.528;2023-04-23T00:13:49;17.80;69.30
4578;DHT22;2301;47.354;8.528;2023-04-23T00:16:18;17.70;69.00
4578;DHT22;2301;47.354;8.528;2023-04-23T00:18:45;17.70;68.70
4578;DHT22;2301;47.354;8.528;2023-04-23T00:21:12;17.70;68.40
4578;DHT22;2301;47.354;8.528;2023-04-23T00:23:39;17.70;68.50
4578;DHT22;2301;47.354;8.528;2023-04-23T00:26:06;17.60;68.60
4578;DHT22;2301;47.354;8.528;2023-04-23T00:28:35;17.60;68.90
4578;DHT22;2301;47.354;8.528;2023-04-23T00:31:02;17.60;68.60
4578;DHT22;2301;47.354;8.528;2023-04-23T00:33:29;17.50;68.90
4578;DHT22;2301;47.354;8.528;2023-04-23T00:35:56;17.60;68.80
4578;DHT22;2301;47.354;8.528;2023-04-23T00:38:23;17.60;68.50
4578;DHT22;2301;47.354;8.528;2023-04-23T00:40:51;17.60;68.80
4578;DHT22;2301;47.354;8.528;2023-04-23T00:43:17;17.60;68.60
4578;DHT22;2301;47.354;8.528;2023-04-23T00:45:46;17.60;68.50
4578;DHT22;2301;47.354;8.528;2023-04-23T00:48:13;17.60;68.60
4578;DHT22;2301;47.354;8.528;2023-04-23T00:50:41;17.50;68.60
4578;DHT22;2301;47.354;8.528;2023-04-23T00:53:09;17.50;68.80
4578;DHT22;2301;47.354;8.528;2023-04-23T00:55:37;17.50;68.60
4578;DHT22;2301;47.354;8.528;2023-04-23T00:58:04;17.50;69.00
4578;DHT22;2301;47.354;8.528;2023-04-23T01:00:34;17.60;69.50
4578;DHT22;2301;47.354;8.528;2023-04-23T01:03:07;17.60;69.40
4578;DHT22;2301;47.354;8.528;2023-04-23T01:05:34;17.60;69.40
4578;DHT22;2301;47.354;8.528;2023-04-23T01:08:01;17.60;69.40
4578;DHT22;2301;47.354;8.528;2023-04-23T01:10:29;17.60;69.60
4578;DHT22;2301;47.354;8.528;2023-04-23T01:12:57;17.60;69.50
4578;DHT22;2301;47.354;8.528;2023-04-23T01:15:26;17.60;69.60
4578;DHT22;2301;47.354;8.528;2023-04-23T01:17:58;17.60;69.70
4578;DHT22;2301;47.354;8.528;2023-04-23T01:20:30;17.50;69.90
4578;DHT22;2301;47.354;8.528;2023-04-23T01:23:00;17.50;69.90
4578;DHT22;2301;47.354;8.528;2023-04-23T01:25:27;17.40;70.20
4578;DHT22;2301;47.354;8.528;2023-04-23T01:27:55;17.40;70.60
4578;DHT22;2301;47.354;8.528;2023-04-23T01:30:23;17.40;70.30
4578;DHT22;2301;47.354;8.528;2023-04-23T01:32:52;17.30;70.40
4578;DHT22;2301;47.354;8.528;2023-04-23T01:35:19;17.30;70.50
4578;DHT22;2301;47.354;8.528;2023-04-23T01:37:47;17.30;70.50
4578;DHT22;2301;47.354;8.528;2023-04-23T01:40:17;17.30;70.80
4578;DHT22;2301;47.354;8.528;2023-04-23T01:42:46;17.30;70.80
4578;DHT22;2301;47.354;8.528;2023-04-23T01:45:16;17.30;71.00
4578;DHT22;2301;47.354;8.528;2023-04-23T01:47:46;17.30;70.70
4578;DHT22;2301;47.354;8.528;2023-04-23T01:50:13;17.20;70.70
4578;DHT22;2301;47.354;8.528;2023-04-23T01:52:40;17.20;70.90
4578;DHT22;2301;47.354;8.528;2023-04-23T01:55:09;17.20;71.20
4578;DHT22;2301;47.354;8.528;2023-04-23T01:57:38;17.10;71.20
4578;DHT22;2301;47.354;8.528;2023-04-23T02:00:07;17.10;71.60
4578;DHT22;2301;47.354;8.528;2023-04-23T02:02:36;17.10;71.80
4578;DHT22;2301;47.354;8.528;2023-04-23T02:05:04;17.10;71.90
4578;DHT22;2301;47.354;8.528;2023-04-23T02:07:34;17.10;72.20
4578;DHT22;2301;47.354;8.528;2023-04-23T02:10:01;17.10;72.30
4578;DHT22;2301;47.354;8.528;2023-04-23T02:12:31;17.10;71.90
4578;DHT22;2301;47.354;8.528;2023-04-23T02:15:03;17.20;72.00
4578;DHT22;2301;47.354;8.528;2023-04-23T02:17:31;17.20;72.50
4578;DHT22;2301;47.354;8.528;2023-04-23T02:20:00;17.20;72.40
4578;DHT22;2301;47.354;8.528;2023-04-23T02:22:27;17.20;72.40
4578;DHT22;2301;47.354;8.528;2023-04-23T02:24:56;17.20;72.60
4578;DHT22;2301;47.354;8.528;2023-04-23T02:27:23;17.20;72.70
4578;DHT22;2301;47.354;8.528;2023-04-23T02:29:51;17.10;72.70
4578;DHT22;2301;47.354;8.528;2023-04-23T02:32:19;17.10;72.90
4578;DHT22;2301;47.354;8.528;2023-04-23T02:34:46;17.10;73.10
4578;DHT22;2301;47.354;8.528;2023-04-23T02:37:13;17.00;73.10
4578;DHT22;2301;47.354;8.528;2023-04-23T02:39:40;17.00;73.20
4578;DHT22;2301;47.354;8.528;2023-04-23T02:42:07;17.00;73.30
4578;DHT22;2301;47.354;8.528;2023-04-23T02:44:34;16.90;73.20
4578;DHT22;2301;47.354;8.528;2023-04-23T02:47:02;17.00;73.50
4578;DHT22;2301;47.354;8.528;2023-04-23T02:49:30;17.00;73.60
4578;DHT22;2301;47.354;8.528;2023-04-23T02:51:57;17.00;73.70
4578;DHT22;2301;47.354;8.528;2023-04-23T02:54:24;16.90;73.70
4578;DHT22;2301;47.354;8.528;2023-04-23T02:56:51;16.90;74.10
4578;DHT22;2301;47.354;8.528;2023-04-23T02:59:18;16.90;74.40
4578;DHT22;2301;47.354;8.528;2023-04-23T03:01:45;16.80;74.40
4578;DHT22;2301;47.354;8.528;2023-04-23T03:04:12;16.80;74.40
4578;DHT22;2301;47.354;8.528;2023-04-23T03:06:40;16.90;74.90
4578;DHT22;2301;47.354;8.528;2023-04-23T03:09:07;16.90;74.40
4578;DHT22;2301;47.354;8.528;2023-04-23T03:11:34;16.90;74.20
4578;DHT22;2301;47.354;8.528;2023-04-23T03:14:01;16.90;74.00
4578;DHT22;2301;47.354;8.528;2023-04-23T03:16:28;16.90;74.20
4578;DHT22;2301;47.354;8.528;2023-04-23T03:18:56;16.90;74.20
4578;DHT22;2301;47.354;8.528;2023-04-23T03:21:23;16.90;74.30
4578;DHT22;2301;47.354;8.528;2023-04-23T03:23:52;16.90;74.40
4578;DHT22;2301;47.354;8.528;2023-04-23T03:26:19;16.90;74.40
4578;DHT22;2301;47.354;8.528;2023-04-23T03:28:46;16.90;74.30
4578;DHT22;2301;47.354;8.528;2023-04-23T03:31:13;16.90;74.30
4578;DHT22;2301;47.354;8.528;2023-04-23T03:33:40;16.90;74.30
4578;DHT22;2301;47.354;8.528;2023-04-23T03:36:08;16.90;74.50
4578;DHT22;2301;47.354;8.528;2023-04-23T03:38:35;16.90;74.40
4578;DHT22;2301;47.354;8.528;2023-04-23T03:41:04;16.90;74.40
4578;DHT22;2301;47.354;8.528;2023-04-23T03:43:31;16.90;74.60
4578;DHT22;2301;47.354;8.528;2023-04-23T03:45:58;16.90;74.70
4578;DHT22;2301;47.354;8.528;2023-04-23T03:48:25;16.80;74.70
4578;DHT22;2301;47.354;8.528;2023-04-23T03:50:52;16.70;74.90
4578;DHT22;2301;47.354;8.528;2023-04-23T03:53:19;16.80;75.00
4578;DHT22;2301;47.354;8.528;2023-04-23T03:55:46;16.80;75.20
4578;DHT22;2301;47.354;8.528;2023-04-23T03:58:14;16.80;75.30
4578;DHT22;2301;47.354;8.528;2023-04-23T04:00:41;16.80;75.40
4578;DHT22;2301;47.354;8.528;2023-04-23T04:03:09;16.70;75.50
4578;DHT22;2301;47.354;8.528;2023-04-23T04:05:35;16.70;75.60
4578;DHT22;2301;47.354;8.528;2023-04-23T04:08:02;16.70;75.70
4578;DHT22;2301;47.354;8.528;2023-04-23T04:10:30;16.70;75.80
4578;DHT22;2301;47.354;8.528;2023-04-23T04:12:57;16.70;75.70
4578;DHT22;2301;47.354;8.528;2023-04-23T04:15:26;16.70;75.80
4578;DHT22;2301;47.354;8.528;2023-04-23T04:17:53;16.70;75.90
4578;DHT22;2301;47.354;8.528;2023-04-23T04:20:19;16.70;75.70
4578;DHT22;2301;47.354;8.528;2023-04-23T04:22:47;16.70;75.60
4578;DHT22;2301;47.354;8.528;2023-04-23T04:25:14;16.80;75.70
4578;DHT22;2301;47.354;8.528;2023-04-23T04:27:41;16.70;75.70
4578;DHT22;2301;47.354;8.528;2023-04-23T04:30:09;16.60;75.80
4578;DHT22;2301;47.354;8.528;2023-04-23T04:32:37;16.60;76.10
4578;DHT22;2301;47.354;8.528;2023-04-23T04:35:05;16.60;76.30
4578;DHT22;2301;47.354;8.528;2023-04-23T04:37:33;16.70;76.50
4578;DHT22;2301;47.354;8.528;2023-04-23T04:40:00;16.70;76.40
4578;DHT22;2301;47.354;8.528;2023-04-23T04:42:28;16.70;76.50
4578;DHT22;2301;47.354;8.528;2023-04-23T04:44:55;16.60;76.50
4578;DHT22;2301;47.354;8.528;2023-04-23T04:47:23;16.60;76.50
4578;DHT22;2301;47.354;8.528;2023-04-23T04:49:52;16.70;76.70
4578;DHT22;2301;47.354;8.528;2023-04-23T04:52:22;16.70;76.60
4578;DHT22;2301;47.354;8.528;2023-04-23T04:54:48;16.70;76.70
4578;DHT22;2301;47.354;8.528;2023-04-23T04:57:15;16.70;76.50
4578;DHT22;2301;47.354;8.528;2023-04-23T04:59:43;16.70;76.40
4578;DHT22;2301;47.354;8.528;2023-04-23T05:02:11;16.70;76.30
4578;DHT22;2301;47.354;8.528;2023-04-23T05:04:38;16.70;76.20
4578;DHT22;2301;47.354;8.528;2023-04-23T05:07:07;16.70;76.30
4578;DHT22;2301;47.354;8.528;2023-04-23T05:09:33;16.70;76.20
4578;DHT22;2301;47.354;8.528;2023-04-23T05:12:00;16.70;76.20
4578;DHT22;2301;47.354;8.528;2023-04-23T05:14:27;16.70;76.30
4578;DHT22;2301;47.354;8.528;2023-04-23T05:16:55;16.70;76.30
4578;DHT22;2301;47.354;8.528;2023-04-23T05:19:22;16.70;76.20
4578;DHT22;2301;47.354;8.528;2023-04-23T05:21:49;16.70;76.10
4578;DHT22;2301;47.354;8.528;2023-04-23T05:24:17;16.70;76.80
4578;DHT22;2301;47.354;8.528;2023-04-23T05:26:44;16.70;76.40
4578;DHT22;2301;47.354;8.528;2023-04-23T05:29:11;16.60;76.50
4578;DHT22;2301;47.354;8.528;2023-04-23T05:31:42;16.60;76.60
4578;DHT22;2301;47.354;8.528;2023-04-23T05:34:09;16.60;76.60
4578;DHT22;2301;47.354;8.528;2023-04-23T05:36:36;16.60;76.70
4578;DHT22;2301;47.354;8.528;2023-04-23T05:39:03;16.70;76.70
4578;DHT22;2301;47.354;8.528;2023-04-23T05:41:31;16.70;76.70
4578;DHT22;2301;47.354;8.528;2023-04-23T05:43:58;16.70;76.70
4578;DHT22;2301;47.354;8.528;2023-04-23T05:46:26;16.70;76.70
4578;DHT22;2301;47.354;8.528;2023-04-23T05:48:53;16.80;76.80
4578;DHT22;2301;47.354;8.528;2023-04-23T05:51:20;16.80;76.60
4578;DHT22;2301;47.354;8.528;2023-04-23T05:53:47;16.80;76.50
4578;DHT22;2301;47.354;8.528;2023-04-23T05:56:14;16.80;76.50
4578;DHT22;2301;47.354;8.528;2023-04-23T05:58:43;16.70;76.40
4578;DHT22;2301;47.354;8.528;2023-04-23T06:01:09;16.70;76.50
4578;DHT22;2301;47.354;8.528;2023-04-23T06:03:37;16.70;76.60
4578;DHT22;2301;47.354;8.528;2023-04-23T06:06:06;16.80;76.70
4578;DHT22;2301;47.354;8.528;2023-04-23T06:08:33;16.80;76.80
4578;DHT22;2301;47.354;8.528;2023-04-23T06:11:00;16.80;76.60
4578;DHT22;2301;47.354;8.528;2023-04-23T06:13:27;16.80;76.50
4578;DHT22;2301;47.354;8.528;2023-04-23T06:15:59;16.80;76.50
4578;DHT22;2301;47.354;8.528;2023-04-23T06:18:29;16.80;76.80
4578;DHT22;2301;47.354;8.528;2023-04-23T06:20:59;16.80;76.80
4578;DHT22;2301;47.354;8.528;2023-04-23T06:23:31;16.80;76.80
4578;DHT22;2301;47.354;8.528;2023-04-23T06:26:01;16.80;76.90
4578;DHT22;2301;47.354;8.528;2023-04-23T06:28:28;16.80;77.10
4578;DHT22;2301;47.354;8.528;2023-04-23T06:30:57;16.80;77.20
4578;DHT22;2301;47.354;8.528;2023-04-23T06:33:24;16.80;77.20
4578;DHT22;2301;47.354;8.528;2023-04-23T06:35:50;16.80;77.10
4578;DHT22;2301;47.354;8.528;2023-04-23T06:38:17;16.80;77.30
4578;DHT22;2301;47.354;8.528;2023-04-23T06:40:45;16.80;77.30
4578;DHT22;2301;47.354;8.528;2023-04-23T06:43:12;16.70;77.10
4578;DHT22;2301;47.354;8.528;2023-04-23T06:45:39;16.70;77.40
4578;DHT22;2301;47.354;8.528;2023-04-23T06:48:07;16.70;77.50
4578;DHT22;2301;47.354;8.528;2023-04-23T06:50:34;16.80;77.60
4578;DHT22;2301;47.354;8.528;2023-04-23T06:53:01;16.80;78.00
4578;DHT22;2301;47.354;8.528;2023-04-23T06:55:28;16.90;77.50
4578;DHT22;2301;47.354;8.528;2023-04-23T06:57:56;16.80;77.10
4578;DHT22;2301;47.354;8.528;2023-04-23T07:00:23;16.80;77.30
4578;DHT22;2301;47.354;8.528;2023-04-23T07:02:50;16.70;78.20
4578;DHT22;2301;47.354;8.528;2023-04-23T07:05:19;16.70;78.00
4578;DHT22;2301;47.354;8.528;2023-04-23T07:07:46;16.70;78.00
4578;DHT22;2301;47.354;8.528;2023-04-23T07:10:13;16.70;77.80
4578;DHT22;2301;47.354;8.528;2023-04-23T07:12:40;17.00;76.90
4578;DHT22;2301;47.354;8.528;2023-04-23T07:15:08;17.30;76.20
4578;DHT22;2301;47.354;8.528;2023-04-23T07:17:35;17.50;75.50
4578;DHT22;2301;47.354;8.528;2023-04-23T07:20:02;17.80;74.60
4578;DHT22;2301;47.354;8.528;2023-04-23T07:22:33;18.10;73.30
4578;DHT22;2301;47.354;8.528;2023-04-23T07:25:01;18.30;72.50
4578;DHT22;2301;47.354;8.528;2023-04-23T07:27:28;18.40;71.80
4578;DHT22;2301;47.354;8.528;2023-04-23T07:29:56;18.60;71.30
4578;DHT22;2301;47.354;8.528;2023-04-23T07:32:23;18.80;70.60
4578;DHT22;2301;47.354;8.528;2023-04-23T07:34:52;19.00;69.60
4578;DHT22;2301;47.354;8.528;2023-04-23T07:37:20;19.20;68.80
4578;DHT22;2301;47.354;8.528;2023-04-23T07:39:49;19.30;68.10
4578;DHT22;2301;47.354;8.528;2023-04-23T07:42:16;19.40;67.30
4578;DHT22;2301;47.354;8.528;2023-04-23T07:44:43;19.50;67.20
4578;DHT22;2301;47.354;8.528;2023-04-23T07:47:10;19.50;66.80
4578;DHT22;2301;47.354;8.528;2023-04-23T07:49:37;19.50;66.40
4578;DHT22;2301;47.354;8.528;2023-04-23T07:52:05;19.50;66.00
4578;DHT22;2301;47.354;8.528;2023-04-23T07:54:32;19.50;65.80
4578;DHT22;2301;47.354;8.528;2023-04-23T07:57:01;19.50;65.80
4578;DHT22;2301;47.354;8.528;2023-04-23T07:59:28;19.50;65.70
4578;DHT22;2301;47.354;8.528;2023-04-23T08:01:55;19.50;65.70
4578;DHT22;2301;47.354;8.528;2023-04-23T08:04:22;19.60;65.60
4578;DHT22;2301;47.354;8.528;2023-04-23T08:06:50;19.60;65.30
4578;DHT22;2301;47.354;8.528;2023-04-23T08:09:17;19.70;65.10
4578;DHT22;2301;47.354;8.528;2023-04-23T08:11:43;19.70;64.90
4578;DHT22;2301;47.354;8.528;2023-04-23T08:14:12;19.80;64.80
4578;DHT22;2301;47.354;8.528;2023-04-23T08:16:39;20.10;64.40
4578;DHT22;2301;47.354;8.528;2023-04-23T08:19:06;20.40;63.40
4578;DHT22;2301;47.354;8.528;2023-04-23T08:21:33;20.60;62.60
4578;DHT22;2301;47.354;8.528;2023-04-23T08:24:00;20.80;62.00
4578;DHT22;2301;47.354;8.528;2023-04-23T08:26:27;20.90;61.90
4578;DHT22;2301;47.354;8.528;2023-04-23T08:28:54;20.80;60.90
4578;DHT22;2301;47.354;8.528;2023-04-23T08:31:23;20.90;60.90
4578;DHT22;2301;47.354;8.528;2023-04-23T08:33:50;20.90;60.90
4578;DHT22;2301;47.354;8.528;2023-04-23T08:36:16;20.80;60.80
4578;DHT22;2301;47.354;8.528;2023-04-23T08:38:43;20.80;60.80
4578;DHT22;2301;47.354;8.528;2023-04-23T08:41:13;21.00;60.60
4578;DHT22;2301;47.354;8.528;2023-04-23T08:43:44;21.20;60.20
4578;DHT22;2301;47.354;8.528;2023-04-23T08:46:12;21.10;59.70
4578;DHT22;2301;47.354;8.528;2023-04-23T08:48:43;21.00;59.60
4578;DHT22;2301;47.354;8.528;2023-04-23T08:51:15;21.00;59.60
4578;DHT22;2301;47.354;8.528;2023-04-23T08:53:44;21.00;59.90
4578;DHT22;2301;47.354;8.528;2023-04-23T08:56:16;20.90;60.70
4578;DHT22;2301;47.354;8.528;2023-04-23T08:58:46;20.70;61.30
4578;DHT22;2301;47.354;8.528;2023-04-23T09:01:14;20.60;62.20
4578;DHT22;2301;47.354;8.528;2023-04-23T09:03:43;20.60;61.80
4578;DHT22;2301;47.354;8.528;2023-04-23T09:06:11;20.60;62.00
4578;DHT22;2301;47.354;8.528;2023-04-23T09:08:38;20.60;62.50
4578;DHT22;2301;47.354;8.528;2023-04-23T09:11:05;20.70;62.00
4578;DHT22;2301;47.354;8.528;2023-04-23T09:13:32;21.10;60.90
4578;DHT22;2301;47.354;8.528;2023-04-23T09:16:01;21.50;60.20
4578;DHT22;2301;47.354;8.528;2023-04-23T09:18:28;21.70;60.10
4578;DHT22;2301;47.354;8.528;2023-04-23T09:20:56;21.70;58.50
4578;DHT22;2301;47.354;8.528;2023-04-23T09:23:23;21.70;59.10
4578;DHT22;2301;47.354;8.528;2023-04-23T09:25:50;21.50;58.40
4578;DHT22;2301;47.354;8.528;2023-04-23T09:28:18;21.30;58.30
4578;DHT22;2301;47.354;8.528;2023-04-23T09:30:45;21.20;58.70
4578;DHT22;2301;47.354;8.528;2023-04-23T09:33:15;21.20;58.80
4578;DHT22;2301;47.354;8.528;2023-04-23T09:35:43;21.40;58.80
4578;DHT22;2301;47.354;8.528;2023-04-23T09:38:13;21.30;58.40
4578;DHT22;2301;47.354;8.528;2023-04-23T09:40:40;21.10;58.50
4578;DHT22;2301;47.354;8.528;2023-04-23T09:43:09;21.10;59.60
4578;DHT22;2301;47.354;8.528;2023-04-23T09:45:36;21.20;59.60
4578;DHT22;2301;47.354;8.528;2023-04-23T09:48:13;21.30;59.50
4578;DHT22;2301;47.354;8.528;2023-04-23T09:50:40;21.40;59.80
4578;DHT22;2301;47.354;8.528;2023-04-23T09:53:08;21.40;59.10
4578;DHT22;2301;47.354;8.528;2023-04-23T09:55:38;21.10;58.30
4578;DHT22;2301;47.354;8.528;2023-04-23T09:58:10;21.00;58.40
4578;DHT22;2301;47.354;8.528;2023-04-23T10:00:38;20.90;58.60
4578;DHT22;2301;47.354;8.528;2023-04-23T10:03:06;21.00;58.80
4578;DHT22;2301;47.354;8.528;2023-04-23T10:05:37;21.10;58.10
4578;DHT22;2301;47.354;8.528;2023-04-23T10:08:06;21.10;57.70
4578;DHT22;2301;47.354;8.528;2023-04-23T10:10:33;21.10;58.00
4578;DHT22;2301;47.354;8.528;2023-04-23T10:13:02;21.20;58.20
4578;DHT22;2301;47.354;8.528;2023-04-23T10:15:29;21.20;58.00
4578;DHT22;2301;47.354;8.528;2023-04-23T10:17:56;21.30;57.20
4578;DHT22;2301;47.354;8.528;2023-04-23T10:20:24;21.50;56.70
4578;DHT22;2301;47.354;8.528;2023-04-23T10:22:52;21.50;56.20
4578;DHT22;2301;47.354;8.528;2023-04-23T10:25:22;21.60;56.40
4578;DHT22;2301;47.354;8.528;2023-04-23T10:27:51;21.70;55.90
4578;DHT22;2301;47.354;8.528;2023-04-23T10:30:20;21.60;55.80
4578;DHT22;2301;47.354;8.528;2023-04-23T10:32:48;21.50;55.70
4578;DHT22;2301;47.354;8.528;2023-04-23T10:35:15;21.50;56.10
4578;DHT22;2301;47.354;8.528;2023-04-23T10:37:44;21.60;57.20
4578;DHT22;2301;47.354;8.528;2023-04-23T10:40:15;21.70;57.00
4578;DHT22;2301;47.354;8.528;2023-04-23T10:42:45;21.90;57.40
4578;DHT22;2301;47.354;8.528;2023-04-23T10:45:13;22.30;57.90
4578;DHT22;2301;47.354;8.528;2023-04-23T10:47:42;22.70;56.70
4578;DHT22;2301;47.354;8.528;2023-04-23T10:50:21;23.00;55.50
4578;DHT22;2301;47.354;8.528;2023-04-23T10:52:49;23.70;54.50
4578;DHT22;2301;47.354;8.528;2023-04-23T10:55:19;24.30;53.30
4578;DHT22;2301;47.354;8.528;2023-04-23T10:57:58;25.10;52.40
4578;DHT22;2301;47.354;8.528;2023-04-23T11:00:25;25.70;49.70
4578;DHT22;2301;47.354;8.528;2023-04-23T11:02:54;26.00;48.80
4578;DHT22;2301;47.354;8.528;2023-04-23T11:05:22;26.40;48.00
4578;DHT22;2301;47.354;8.528;2023-04-23T11:08:03;26.50;46.90
4578;DHT22;2301;47.354;8.528;2023-04-23T11:10:31;26.50;45.50
4578;DHT22;2301;47.354;8.528;2023-04-23T11:13:21;26.40;46.50
4578;DHT22;2301;47.354;8.528;2023-04-23T11:15:48;26.40;46.90
4578;DHT22;2301;47.354;8.528;2023-04-23T11:18:16;26.00;46.70
4578;DHT22;2301;47.354;8.528;2023-04-23T11:20:43;25.70;47.00
4578;DHT22;2301;47.354;8.528;2023-04-23T11:23:28;25.50;48.20
4578;DHT22;2301;47.354;8.528;2023-04-23T11:25:57;25.40;48.30
4578;DHT22;2301;47.354;8.528;2023-04-23T11:28:25;25.10;47.40
4578;DHT22;2301;47.354;8.528;2023-04-23T11:30:53;24.90;47.50
4578;DHT22;2301;47.354;8.528;2023-04-23T11:33:22;24.70;46.90
4578;DHT22;2301;47.354;8.528;2023-04-23T11:35:49;24.60;47.60
4578;DHT22;2301;47.354;8.528;2023-04-23T11:38:15;24.40;47.30
4578;DHT22;2301;47.354;8.528;2023-04-23T11:40:45;24.40;48.30
4578;DHT22;2301;47.354;8.528;2023-04-23T11:43:17;24.50;49.20
4578;DHT22;2301;47.354;8.528;2023-04-23T11:45:45;24.60;48.40
4578;DHT22;2301;47.354;8.528;2023-04-23T11:48:12;24.50;48.10
4578;DHT22;2301;47.354;8.528;2023-04-23T11:50:41;24.50;48.30
4578;DHT22;2301;47.354;8.528;2023-04-23T11:53:09;24.40;48.20
4578;DHT22;2301;47.354;8.528;2023-04-23T11:55:37;24.40;48.80
4578;DHT22;2301;47.354;8.528;2023-04-23T11:58:08;24.40;47.80
4578;DHT22;2301;47.354;8.528;2023-04-23T12:00:35;24.30;48.30
4578;DHT22;2301;47.354;8.528;2023-04-23T12:03:03;24.40;48.90
4578;DHT22;2301;47.354;8.528;2023-04-23T12:05:32;24.50;49.20
4578;DHT22;2301;47.354;8.528;2023-04-23T12:08:08;24.70;49.20
4578;DHT22;2301;47.354;8.528;2023-04-23T12:10:42;24.70;48.40
4578;DHT22;2301;47.354;8.528;2023-04-23T12:13:13;24.70;49.20
4578;DHT22;2301;47.354;8.528;2023-04-23T12:15:45;24.60;49.10
4578;DHT22;2301;47.354;8.528;2023-04-23T12:18:12;24.70;49.40
4578;DHT22;2301;47.354;8.528;2023-04-23T12:20:39;24.70;49.60
4578;DHT22;2301;47.354;8.528;2023-04-23T12:23:08;24.70;48.50
4578;DHT22;2301;47.354;8.528;2023-04-23T12:25:35;24.80;48.50
4578;DHT22;2301;47.354;8.528;2023-04-23T12:28:05;24.80;48.80
4578;DHT22;2301;47.354;8.528;2023-04-23T12:30:34;24.80;48.30
4578;DHT22;2301;47.354;8.528;2023-04-23T12:33:01;24.80;47.80
4578;DHT22;2301;47.354;8.528;2023-04-23T12:35:38;24.60;47.80
4578;DHT22;2301;47.354;8.528;2023-04-23T12:38:07;24.40;48.10
4578;DHT22;2301;47.354;8.528;2023-04-23T12:40:46;24.20;48.90
4578;DHT22;2301;47.354;8.528;2023-04-23T12:43:13;24.10;48.60
4578;DHT22;2301;47.354;8.528;2023-04-23T12:45:40;24.00;48.90
4578;DHT22;2301;47.354;8.528;2023-04-23T12:48:07;23.80;49.00
4578;DHT22;2301;47.354;8.528;2023-04-23T12:50:35;23.60;49.10
4578;DHT22;2301;47.354;8.528;2023-04-23T12:53:02;23.60;50.00
4578;DHT22;2301;47.354;8.528;2023-04-23T12:55:30;23.70;50.20
4578;DHT22;2301;47.354;8.528;2023-04-23T12:57:57;23.80;50.30
4578;DHT22;2301;47.354;8.528;2023-04-23T13:00:25;24.00;50.50
4578;DHT22;2301;47.354;8.528;2023-04-23T13:02:54;24.00;50.20
4578;DHT22;2301;47.354;8.528;2023-04-23T13:05:21;24.10;50.00
4578;DHT22;2301;47.354;8.528;2023-04-23T13:07:48;24.20;49.70
4578;DHT22;2301;47.354;8.528;2023-04-23T13:10:15;24.20;49.70
4578;DHT22;2301;47.354;8.528;2023-04-23T13:12:44;24.00;49.70
4578;DHT22;2301;47.354;8.528;2023-04-23T13:15:11;23.90;49.40
4578;DHT22;2301;47.354;8.528;2023-04-23T13:17:38;23.70;49.40
4578;DHT22;2301;47.354;8.528;2023-04-23T13:20:06;23.40;49.80
4578;DHT22;2301;47.354;8.528;2023-04-23T13:22:34;23.20;49.80
4578;DHT22;2301;47.354;8.528;2023-04-23T13:25:01;23.10;50.70
4578;DHT22;2301;47.354;8.528;2023-04-23T13:27:28;23.10;51.30
4578;DHT22;2301;47.354;8.528;2023-04-23T13:29:57;23.00;51.70
4578;DHT22;2301;47.354;8.528;2023-04-23T13:32:24;23.00;51.70
4578;DHT22;2301;47.354;8.528;2023-04-23T13:34:51;22.90;51.40
4578;DHT22;2301;47.354;8.528;2023-04-23T13:37:18;22.90;51.60
4578;DHT22;2301;47.354;8.528;2023-04-23T13:39:45;22.70;51.20
4578;DHT22;2301;47.354;8.528;2023-04-23T13:42:13;22.50;51.90
4578;DHT22;2301;47.354;8.528;2023-04-23T13:44:40;22.30;52.50
4578;DHT22;2301;47.354;8.528;2023-04-23T13:47:08;22.20;53.20
4578;DHT22;2301;47.354;8.528;2023-04-23T13:49:35;21.90;53.40
4578;DHT22;2301;47.354;8.528;2023-04-23T13:52:02;21.70;53.80
4578;DHT22;2301;47.354;8.528;2023-04-23T13:54:31;21.70;54.20
4578;DHT22;2301;47.354;8.528;2023-04-23T13:56:58;21.60;54.50
4578;DHT22;2301;47.354;8.528;2023-04-23T13:59:25;21.60;54.70
4578;DHT22;2301;47.354;8.528;2023-04-23T14:01:52;21.50;54.90
4578;DHT22;2301;47.354;8.528;2023-04-23T14:04:21;21.50;55.30
4578;DHT22;2301;47.354;8.528;2023-04-23T14:06:48;21.40;55.10
4578;DHT22;2301;47.354;8.528;2023-04-23T14:09:15;21.30;54.80
4578;DHT22;2301;47.354;8.528;2023-04-23T14:11:43;21.20;54.70
4578;DHT22;2301;47.354;8.528;2023-04-23T14:14:13;21.10;55.00
4578;DHT22;2301;47.354;8.528;2023-04-23T14:16:41;20.90;54.90
4578;DHT22;2301;47.354;8.528;2023-04-23T14:19:07;20.90;55.00
4578;DHT22;2301;47.354;8.528;2023-04-23T14:21:36;20.90;55.40
4578;DHT22;2301;47.354;8.528;2023-04-23T14:24:08;20.90;55.60
4578;DHT22;2301;47.354;8.528;2023-04-23T14:26:36;20.80;55.90
4578;DHT22;2301;47.354;8.528;2023-04-23T14:29:09;20.70;56.40
4578;DHT22;2301;47.354;8.528;2023-04-23T14:31:37;20.70;56.80
4578;DHT22;2301;47.354;8.528;2023-04-23T14:34:04;20.60;57.30
4578;DHT22;2301;47.354;8.528;2023-04-23T14:36:31;20.60;56.80
4578;DHT22;2301;47.354;8.528;2023-04-23T14:39:00;20.60;57.70
4578;DHT22;2301;47.354;8.528;2023-04-23T14:41:30;20.50;56.60
4578;DHT22;2301;47.354;8.528;2023-04-23T14:43:59;20.30;53.40
4578;DHT22;2301;47.354;8.528;2023-04-23T14:46:27;20.20;53.80
4578;DHT22;2301;47.354;8.528;2023-04-23T14:48:54;20.10;54.30
4578;DHT22;2301;47.354;8.528;2023-04-23T14:51:21;20.00;55.90
4578;DHT22;2301;47.354;8.528;2023-04-23T14:53:48;20.00;57.20
4578;DHT22;2301;47.354;8.528;2023-04-23T14:56:17;20.00;58.20
4578;DHT22;2301;47.354;8.528;2023-04-23T14:58:44;19.90;58.60
4578;DHT22;2301;47.354;8.528;2023-04-23T15:01:11;19.90;59.00
4578;DHT22;2301;47.354;8.528;2023-04-23T15:03:38;19.90;59.40
4578;DHT22;2301;47.354;8.528;2023-04-23T15:06:06;19.90;60.20
4578;DHT22;2301;47.354;8.528;2023-04-23T15:08:33;19.80;60.50
4578;DHT22;2301;47.354;8.528;2023-04-23T15:11:00;19.70;60.80
4578;DHT22;2301;47.354;8.528;2023-04-23T15:13:43;19.70;61.60
4578;DHT22;2301;47.354;8.528;2023-04-23T15:16:24;19.60;61.80
4578;DHT22;2301;47.354;8.528;2023-04-23T15:18:54;19.50;62.30
4578;DHT22;2301;47.354;8.528;2023-04-23T15:21:21;19.40;62.90
4578;DHT22;2301;47.354;8.528;2023-04-23T15:23:48;19.30;63.40
4578;DHT22;2301;47.354;8.528;2023-04-23T15:26:15;19.20;64.40
4578;DHT22;2301;47.354;8.528;2023-04-23T15:28:44;19.20;65.50
4578;DHT22;2301;47.354;8.528;2023-04-23T15:31:11;19.20;66.30
4578;DHT22;2301;47.354;8.528;2023-04-23T15:33:38;19.20;66.60
4578;DHT22;2301;47.354;8.528;2023-04-23T15:36:05;19.30;67.10
4578;DHT22;2301;47.354;8.528;2023-04-23T15:38:33;19.30;67.50
4578;DHT22;2301;47.354;8.528;2023-04-23T15:41:00;19.30;68.10
4578;DHT22;2301;47.354;8.528;2023-04-23T15:43:27;19.30;68.10
4578;DHT22;2301;47.354;8.528;2023-04-23T15:45:55;19.30;68.00
4578;DHT22;2301;47.354;8.528;2023-04-23T15:48:23;19.40;67.90
4578;DHT22;2301;47.354;8.528;2023-04-23T15:50:51;19.20;66.90
4578;DHT22;2301;47.354;8.528;2023-04-23T15:53:19;19.10;66.40
4578;DHT22;2301;47.354;8.528;2023-04-23T15:55:48;19.00;65.80
4578;DHT22;2301;47.354;8.528;2023-04-23T15:58:15;18.90;65.50
4578;DHT22;2301;47.354;8.528;2023-04-23T16:00:42;18.80;64.60
4578;DHT22;2301;47.354;8.528;2023-04-23T16:03:11;18.60;64.20
4578;DHT22;2301;47.354;8.528;2023-04-23T16:05:39;18.60;64.50
4578;DHT22;2301;47.354;8.528;2023-04-23T16:08:06;18.50;64.30